sensor_id;sensor_type;location;lat;lon;timestamp;pressure;altitude;pressure_sealevel;temperature;humidity
4858;BME280;58975;51.978;8.472;2023-04-04T00:03:16;101720.41;;;-1.16;100.00
4858;BME280;58975;51.978;8.472;2023-04-04T00:08:13;101719.53;;;-1.15;100.00
4858;BME280;58975;51.978;8.472;2023-04-04T00:13:09;101719.63;;;-1.23;100.00
4858;BME280;58975;51.978;8.472;2023-04-04T00:18:05;101716.97;;;-1.21;100.00
4858;BME280;58975;51.978;8.472;2023-04-04T00:23:02;101712.63;;;-1.21;100.00
4858;BME280;58975;51.978;8.472;2023-04-04T00:27:58;101715.38;;;-1.31;100.00
4858;BME280;58975;51.978;8.472;2023-04-04T00:32:56;101702.44;;;-1.42;100.00
4858;BME280;58975;51.978;8.472;2023-04-04T00:37:53;101709.44;;;-1.47;100.00
4858;BME280;58975;51.978;8.472;2023-04-04T00:42:49;101704.25;;;-1.50;100.00
4858;BME280;58975;51.978;8.472;2023-04-04T00:47:46;101701.69;;;-1.53;100.00
4858;BME280;58975;51.978;8.472;2023-04-04T00:52:43;101702.59;;;-1.59;100.00
4858;BME280;58975;51.978;8.472;2023-04-04T00:57:40;101706.97;;;-1.61;100.00
4858;BME280;58975;51.978;8.472;2023-04-04T01:02:36;101710.50;;;-1.65;100.00
4858;BME280;58975;51.978;8.472;2023-04-04T01:07:35;101701.00;;;-1.73;100.00
4858;BME280;58975;51.978;8.472;2023-04-04T01:12:32;101700.19;;;-1.77;100.00
4858;BME280;58975;51.978;8.472;2023-04-04T01:17:29;101687.13;;;-1.78;100.00
4858;BME280;58975;51.978;8.472;2023-04-04T01:22:26;101690.59;;;-1.79;100.00
4858;BME280;58975;51.978;8.472;2023-04-04T01:27:22;101697.56;;;-1.80;100.00
4858;BME280;58975;51.978;8.472;2023-04-04T01:32:24;101691.44;;;-1.73;100.00
4858;BME280;58975;51.978;8.472;2023-04-04T01:42:27;101682.50;;;-1.51;100.00
4858;BME280;58975;51.978;8.472;2023-04-04T01:47:24;101679.13;;;-1.62;100.00
4858;BME280;58975;51.978;8.472;2023-04-04T01:52:20;101678.38;;;-1.76;100.00
4858;BME280;58975;51.978;8.472;2023-04-04T01:57:17;101664.47;;;-1.73;100.00
4858;BME280;58975;51.978;8.472;2023-04-04T02:02:13;101665.41;;;-1.82;100.00
4858;BME280;58975;51.978;8.472;2023-04-04T02:07:09;101666.25;;;-1.80;100.00
4858;BME280;58975;51.978;8.472;2023-04-04T02:12:06;101662.88;;;-1.91;100.00
4858;BME280;58975;51.978;8.472;2023-04-04T02:17:03;101667.16;;;-1.81;100.00
4858;BME280;58975;51.978;8.472;2023-04-04T02:21:59;101671.53;;;-1.86;100.00
4858;BME280;58975;51.978;8.472;2023-04-04T02:26:56;101672.38;;;-1.84;100.00
4858;BME280;58975;51.978;8.472;2023-04-04T02:31:52;101668.13;;;-1.96;100.00
4858;BME280;58975;51.978;8.472;2023-04-04T02:36:48;101669.06;;;-2.03;100.00
4858;BME280;58975;51.978;8.472;2023-04-04T02:41:45;101663.00;;;-2.05;100.00
4858;BME280;58975;51.978;8.472;2023-04-04T02:46:41;101658.63;;;-2.01;100.00
4858;BME280;58975;51.978;8.472;2023-04-04T02:51:38;101656.84;;;-1.99;100.00
4858;BME280;58975;51.978;8.472;2023-04-04T02:56:35;101650.84;;;-2.06;100.00
4858;BME280;58975;51.978;8.472;2023-04-04T03:01:32;101645.63;;;-2.04;100.00
4858;BME280;58975;51.978;8.472;2023-04-04T03:06:31;101640.47;;;-2.13;100.00
4858;BME280;58975;51.978;8.472;2023-04-04T03:11:29;101648.31;;;-2.16;100.00
4858;BME280;58975;51.978;8.472;2023-04-04T03:16:25;101637.84;;;-2.13;100.00
4858;BME280;58975;51.978;8.472;2023-04-04T03:21:22;101631.53;;;-1.91;100.00
4858;BME280;58975;51.978;8.472;2023-04-04T03:26:18;101637.72;;;-1.98;100.00
4858;BME280;58975;51.978;8.472;2023-04-04T03:31:15;101629.97;;;-2.07;100.00
4858;BME280;58975;51.978;8.472;2023-04-04T03:36:14;101628.22;;;-2.05;100.00
4858;BME280;58975;51.978;8.472;2023-04-04T03:41:10;101625.75;;;-2.23;100.00
4858;BME280;58975;51.978;8.472;2023-04-04T03:46:07;101616.16;;;-2.18;100.00
4858;BME280;58975;51.978;8.472;2023-04-04T03:51:03;101625.56;;;-2.02;100.00
4858;BME280;58975;51.978;8.472;2023-04-04T03:55:59;101622.09;;;-2.01;100.00
4858;BME280;58975;51.978;8.472;2023-04-04T04:00:56;101613.44;;;-2.06;100.00
4858;BME280;58975;51.978;8.472;2023-04-04T04:05:52;101616.97;;;-2.13;100.00
4858;BME280;58975;51.978;8.472;2023-04-04T04:10:48;101616.94;;;-2.10;100.00
4858;BME280;58975;51.978;8.472;2023-04-04T04:15:45;101609.81;;;-1.93;100.00
4858;BME280;58975;51.978;8.472;2023-04-04T04:20:41;101602.00;;;-1.95;100.00
4858;BME280;58975;51.978;8.472;2023-04-04T04:25:38;101606.47;;;-2.07;100.00
4858;BME280;58975;51.978;8.472;2023-04-04T04:30:34;101604.75;;;-2.11;100.00
4858;BME280;58975;51.978;8.472;2023-04-04T04:35:30;101609.13;;;-2.10;100.00
4858;BME280;58975;51.978;8.472;2023-04-04T04:40:27;101609.19;;;-2.16;100.00
4858;BME280;58975;51.978;8.472;2023-04-04T04:45:23;101607.44;;;-2.17;100.00
4858;BME280;58975;51.978;8.472;2023-04-04T04:50:19;101611.91;;;-2.28;100.00
4858;BME280;58975;51.978;8.472;2023-04-04T04:55:16;101606.72;;;-2.34;100.00
4858;BME280;58975;51.978;8.472;2023-04-04T05:00:13;101610.97;;;-2.23;100.00
4858;BME280;58975;51.978;8.472;2023-04-04T05:05:10;101615.25;;;-2.13;100.00
4858;BME280;58975;51.978;8.472;2023-04-04T05:10:07;101619.47;;;-2.03;100.00
4858;BME280;58975;51.978;8.472;2023-04-04T05:15:03;101613.34;;;-1.99;100.00
4858;BME280;58975;51.978;8.472;2023-04-04T05:19:59;101621.03;;;-1.83;100.00
4858;BME280;58975;51.978;8.472;2023-04-04T05:24:56;101625.38;;;-1.81;100.00
4858;BME280;58975;51.978;8.472;2023-04-04T05:29:52;101623.19;;;-1.42;100.00
4858;BME280;58975;51.978;8.472;2023-04-04T05:34:49;101619.72;;;-0.79;100.00
4858;BME280;58975;51.978;8.472;2023-04-04T05:39:45;101638.72;;;-0.13;100.00
4858;BME280;58975;51.978;8.472;2023-04-04T05:44:42;101633.25;;;0.47;100.00
4858;BME280;58975;51.978;8.472;2023-04-04T05:49:38;101637.28;;;1.43;100.00
4858;BME280;58975;51.978;8.472;2023-04-04T05:54:34;101640.69;;;1.83;100.00
4858;BME280;58975;51.978;8.472;2023-04-04T05:59:31;101644.59;;;1.66;100.00
4858;BME280;58975;51.978;8.472;2023-04-04T06:04:27;101649.78;;;1.69;100.00
4858;BME280;58975;51.978;8.472;2023-04-04T06:09:24;101654.22;;;1.67;100.00
4858;BME280;58975;51.978;8.472;2023-04-04T06:14:20;101663.50;;;1.45;100.00
4858;BME280;58975;51.978;8.472;2023-04-04T06:19:16;101676.59;;;1.06;100.00
4858;BME280;58975;51.978;8.472;2023-04-04T06:24:15;101661.16;;;0.91;100.00
4858;BME280;58975;51.978;8.472;2023-04-04T06:29:11;101676.25;;;0.81;100.00
4858;BME280;58975;51.978;8.472;2023-04-04T06:34:08;101673.97;;;0.63;100.00
4858;BME280;58975;51.978;8.472;2023-04-04T06:39:04;101686.19;;;0.66;100.00
4858;BME280;58975;51.978;8.472;2023-04-04T06:44:01;101699.34;;;0.63;100.00
4858;BME280;58975;51.978;8.472;2023-04-04T06:48:58;101694.53;;;0.86;100.00
4858;BME280;58975;51.978;8.472;2023-04-04T06:53:54;101688.31;;;0.90;100.00
4858;BME280;58975;51.978;8.472;2023-04-04T06:58:51;101684.16;;;1.20;100.00
4858;BME280;58975;51.978;8.472;2023-04-04T07:03:49;101686.22;;;1.82;100.00
4858;BME280;58975;51.978;8.472;2023-04-04T07:08:47;101682.63;;;2.20;100.00
4858;BME280;58975;51.978;8.472;2023-04-04T07:13:43;101676.19;;;2.95;100.00
4858;BME280;58975;51.978;8.472;2023-04-04T07:18:40;101676.84;;;2.72;100.00
4858;BME280;58975;51.978;8.472;2023-04-04T07:23:36;101671.16;;;2.57;100.00
4858;BME280;58975;51.978;8.472;2023-04-04T07:28:32;101670.94;;;2.64;100.00
4858;BME280;58975;51.978;8.472;2023-04-04T07:33:29;101671.75;;;2.97;100.00
4858;BME280;58975;51.978;8.472;2023-04-04T07:38:26;101664.22;;;3.14;90.46
4858;BME280;58975;51.978;8.472;2023-04-04T07:43:22;101666.44;;;3.28;87.20
4858;BME280;58975;51.978;8.472;2023-04-04T07:48:19;101659.94;;;3.40;83.24
4858;BME280;58975;51.978;8.472;2023-04-04T07:53:18;101654.91;;;3.86;79.48
4858;BME280;58975;51.978;8.472;2023-04-04T07:58:14;101645.09;;;3.91;77.07
4858;BME280;58975;51.978;8.472;2023-04-04T08:03:10;101646.00;;;3.90;69.78
4858;BME280;58975;51.978;8.472;2023-04-04T08:08:07;101649.34;;;3.95;69.25
4858;BME280;58975;51.978;8.472;2023-04-04T08:13:04;101654.91;;;3.60;71.37
4858;BME280;58975;51.978;8.472;2023-04-04T08:18:00;101656.13;;;4.02;71.58
4858;BME280;58975;51.978;8.472;2023-04-04T08:22:57;101657.19;;;4.48;70.83
4858;BME280;58975;51.978;8.472;2023-04-04T08:27:54;101654.47;;;4.24;66.82
4858;BME280;58975;51.978;8.472;2023-04-04T08:32:50;101665.50;;;4.36;70.95
4858;BME280;58975;51.978;8.472;2023-04-04T08:37:46;101657.47;;;4.15;66.55
4858;BME280;58975;51.978;8.472;2023-04-04T08:42:43;101659.28;;;4.86;69.17
4858;BME280;58975;51.978;8.472;2023-04-04T08:47:41;101637.94;;;5.15;62.66
4858;BME280;58975;51.978;8.472;2023-04-04T08:52:39;101648.94;;;4.57;64.50
4858;BME280;58975;51.978;8.472;2023-04-04T08:57:35;101648.41;;;4.95;65.53
4858;BME280;58975;51.978;8.472;2023-04-04T09:02:33;101643.75;;;5.90;64.85
4858;BME280;58975;51.978;8.472;2023-04-04T09:07:33;101640.03;;;5.72;61.76
4858;BME280;58975;51.978;8.472;2023-04-04T09:12:33;101647.50;;;6.27;61.74
4858;BME280;58975;51.978;8.472;2023-04-04T09:17:31;101645.91;;;5.14;60.72
4858;BME280;58975;51.978;8.472;2023-04-04T09:22:27;101638.38;;;6.13;63.29
4858;BME280;58975;51.978;8.472;2023-04-04T09:27:23;101632.72;;;6.61;59.53
4858;BME280;58975;51.978;8.472;2023-04-04T09:32:20;101632.25;;;6.72;60.60
4858;BME280;58975;51.978;8.472;2023-04-04T09:37:18;101631.63;;;6.86;59.27
4858;BME280;58975;51.978;8.472;2023-04-04T09:42:15;101626.44;;;6.64;57.21
4858;BME280;58975;51.978;8.472;2023-04-04T09:47:24;101629.22;;;5.57;59.13
4858;BME280;58975;51.978;8.472;2023-04-04T09:52:24;101624.81;;;6.41;58.10
4858;BME280;58975;51.978;8.472;2023-04-04T09:57:20;101626.59;;;6.21;55.90
4858;BME280;58975;51.978;8.472;2023-04-04T10:02:17;101617.81;;;5.35;56.94
4858;BME280;58975;51.978;8.472;2023-04-04T10:07:13;101613.28;;;5.60;58.11
4858;BME280;58975;51.978;8.472;2023-04-04T10:12:11;101610.56;;;6.64;57.89
4858;BME280;58975;51.978;8.472;2023-04-04T10:17:08;101605.72;;;6.92;55.95
4858;BME280;58975;51.978;8.472;2023-04-04T10:22:08;101594.16;;;5.75;54.26
4858;BME280;58975;51.978;8.472;2023-04-04T10:27:04;101590.22;;;6.26;55.16
4858;BME280;58975;51.978;8.472;2023-04-04T10:32:04;101594.50;;;6.08;56.86
4858;BME280;58975;51.978;8.472;2023-04-04T10:37:04;101588.81;;;6.37;56.56
4858;BME280;58975;51.978;8.472;2023-04-04T10:42:03;101577.50;;;6.91;54.26
4858;BME280;58975;51.978;8.472;2023-04-04T10:47:03;101576.78;;;6.50;53.91
4858;BME280;58975;51.978;8.472;2023-04-04T10:52:02;101561.47;;;6.94;53.65
4858;BME280;58975;51.978;8.472;2023-04-04T10:56:59;101571.75;;;6.63;53.21
4858;BME280;58975;51.978;8.472;2023-04-04T11:01:56;101562.34;;;6.76;52.69
4858;BME280;58975;51.978;8.472;2023-04-04T11:07:03;101555.56;;;6.32;54.63
4858;BME280;58975;51.978;8.472;2023-04-04T11:12:06;101549.84;;;7.34;58.62
4858;BME280;58975;51.978;8.472;2023-04-04T11:17:03;101541.41;;;7.26;54.12
4858;BME280;58975;51.978;8.472;2023-04-04T11:22:01;101540.13;;;7.86;51.81
4858;BME280;58975;51.978;8.472;2023-04-04T11:26:57;101537.94;;;7.77;50.09
4858;BME280;58975;51.978;8.472;2023-04-04T11:31:55;101535.56;;;6.63;55.50
4858;BME280;58975;51.978;8.472;2023-04-04T11:36:52;101532.16;;;6.80;54.64
4858;BME280;58975;51.978;8.472;2023-04-04T11:41:53;101518.25;;;7.12;53.61
4858;BME280;58975;51.978;8.472;2023-04-04T11:52:04;101503.00;;;8.03;52.88
4858;BME280;58975;51.978;8.472;2023-04-04T11:57:01;101510.22;;;8.17;55.04
4858;BME280;58975;51.978;8.472;2023-04-04T12:01:58;101501.06;;;8.40;50.35
4858;BME280;58975;51.978;8.472;2023-04-04T12:06:56;101487.63;;;8.74;46.96
4858;BME280;58975;51.978;8.472;2023-04-04T12:11:54;101492.75;;;8.13;49.24
4858;BME280;58975;51.978;8.472;2023-04-04T12:16:54;101493.78;;;6.89;51.39
4858;BME280;58975;51.978;8.472;2023-04-04T12:21:51;101498.38;;;6.66;50.75
4858;BME280;58975;51.978;8.472;2023-04-04T12:26:49;101484.78;;;7.63;50.85
4858;BME280;58975;51.978;8.472;2023-04-04T12:31:46;101460.72;;;8.16;50.64
4858;BME280;58975;51.978;8.472;2023-04-04T12:36:45;101471.13;;;7.53;52.49
4858;BME280;58975;51.978;8.472;2023-04-04T12:41:51;101464.25;;;7.15;51.23
4858;BME280;58975;51.978;8.472;2023-04-04T12:46:48;101447.31;;;7.18;50.40
4858;BME280;58975;51.978;8.472;2023-04-04T12:51:45;101432.69;;;7.62;50.92
4858;BME280;58975;51.978;8.472;2023-04-04T12:56:41;101421.09;;;8.46;50.64
4858;BME280;58975;51.978;8.472;2023-04-04T13:01:37;101412.66;;;9.00;47.94
4858;BME280;58975;51.978;8.472;2023-04-04T13:06:35;101412.94;;;8.80;46.30
4858;BME280;58975;51.978;8.472;2023-04-04T13:17:08;101408.31;;;8.37;47.59
4858;BME280;58975;51.978;8.472;2023-04-04T13:22:06;101393.25;;;8.53;46.88
4858;BME280;58975;51.978;8.472;2023-04-04T13:27:02;101389.72;;;8.21;48.16
4858;BME280;58975;51.978;8.472;2023-04-04T13:31:59;101378.78;;;7.11;51.61
4858;BME280;58975;51.978;8.472;2023-04-04T13:36:56;101391.94;;;7.80;53.60
4858;BME280;58975;51.978;8.472;2023-04-04T13:41:53;101372.75;;;8.24;51.25
4858;BME280;58975;51.978;8.472;2023-04-04T13:46:49;101353.59;;;8.19;49.67
4858;BME280;58975;51.978;8.472;2023-04-04T13:51:46;101353.22;;;7.93;50.52
4858;BME280;58975;51.978;8.472;2023-04-04T13:56:42;101349.88;;;7.90;50.08
4858;BME280;58975;51.978;8.472;2023-04-04T14:01:39;101340.16;;;8.06;48.61
4858;BME280;58975;51.978;8.472;2023-04-04T14:06:35;101339.72;;;8.90;50.76
4858;BME280;58975;51.978;8.472;2023-04-04T14:11:32;101326.34;;;9.22;49.30
4858;BME280;58975;51.978;8.472;2023-04-04T14:16:29;101329.22;;;9.33;51.71
4858;BME280;58975;51.978;8.472;2023-04-04T14:21:25;101329.88;;;8.16;48.70
4858;BME280;58975;51.978;8.472;2023-04-04T14:26:23;101317.66;;;8.74;48.71
4858;BME280;58975;51.978;8.472;2023-04-04T14:31:19;101322.44;;;8.22;47.59
4858;BME280;58975;51.978;8.472;2023-04-04T14:36:16;101314.38;;;8.24;47.25
4858;BME280;58975;51.978;8.472;2023-04-04T14:41:14;101300.16;;;8.56;48.68
4858;BME280;58975;51.978;8.472;2023-04-04T14:46:11;101300.16;;;8.25;46.54
4858;BME280;58975;51.978;8.472;2023-04-04T14:51:07;101295.47;;;7.98;48.12
4858;BME280;58975;51.978;8.472;2023-04-04T14:56:04;101283.00;;;8.77;45.61
4858;BME280;58975;51.978;8.472;2023-04-04T15:01:00;101275.53;;;8.98;45.50
4858;BME280;58975;51.978;8.472;2023-04-04T15:05:57;101273.84;;;8.67;45.00
4858;BME280;58975;51.978;8.472;2023-04-04T15:10:53;101270.53;;;9.08;46.43
4858;BME280;58975;51.978;8.472;2023-04-04T15:15:50;101273.91;;;8.81;44.81
4858;BME280;58975;51.978;8.472;2023-04-04T15:20:46;101262.31;;;8.52;45.64
4858;BME280;58975;51.978;8.472;2023-04-04T15:25:42;101264.81;;;8.99;44.25
4858;BME280;58975;51.978;8.472;2023-04-04T15:30:39;101267.91;;;9.36;45.67
4858;BME280;58975;51.978;8.472;2023-04-04T15:35:36;101268.09;;;9.47;43.54
4858;BME280;58975;51.978;8.472;2023-04-04T15:40:32;101262.66;;;8.62;42.68
4858;BME280;58975;51.978;8.472;2023-04-04T15:45:29;101270.66;;;8.76;44.26
4858;BME280;58975;51.978;8.472;2023-04-04T15:50:25;101258.75;;;8.97;44.34
4858;BME280;58975;51.978;8.472;2023-04-04T15:55:22;101260.03;;;9.48;44.88
4858;BME280;58975;51.978;8.472;2023-04-04T16:00:18;101258.50;;;9.44;44.29
4858;BME280;58975;51.978;8.472;2023-04-04T16:05:15;101259.06;;;8.47;43.94
4858;BME280;58975;51.978;8.472;2023-04-04T16:10:11;101247.47;;;9.08;43.12
4858;BME280;58975;51.978;8.472;2023-04-04T16:15:07;101252.22;;;9.45;41.72
4858;BME280;58975;51.978;8.472;2023-04-04T16:20:04;101255.06;;;8.25;42.62
4858;BME280;58975;51.978;8.472;2023-04-04T16:25:01;101248.16;;;8.06;43.55
4858;BME280;58975;51.978;8.472;2023-04-04T16:29:57;101243.94;;;9.08;43.50
4858;BME280;58975;51.978;8.472;2023-04-04T16:34:53;101239.22;;;9.55;44.45
4858;BME280;58975;51.978;8.472;2023-04-04T16:39:50;101230.84;;;9.19;42.48
4858;BME280;58975;51.978;8.472;2023-04-04T16:44:47;101241.75;;;8.56;42.85
4858;BME280;58975;51.978;8.472;2023-04-04T16:49:43;101227.56;;;8.71;41.68
4858;BME280;58975;51.978;8.472;2023-04-04T16:54:42;101229.53;;;9.12;42.05
4858;BME280;58975;51.978;8.472;2023-04-04T16:59:38;101225.78;;;8.72;40.82
4858;BME280;58975;51.978;8.472;2023-04-04T17:04:35;101223.44;;;9.38;41.21
4858;BME280;58975;51.978;8.472;2023-04-04T17:09:36;101213.75;;;11.23;39.21
4858;BME280;58975;51.978;8.472;2023-04-04T17:14:33;101212.31;;;10.15;37.93
4858;BME280;58975;51.978;8.472;2023-04-04T17:19:31;101201.09;;;10.36;38.29
4858;BME280;58975;51.978;8.472;2023-04-04T17:24:28;101207.13;;;9.30;41.95
4858;BME280;58975;51.978;8.472;2023-04-04T17:29:24;101217.19;;;7.44;46.99
4858;BME280;58975;51.978;8.472;2023-04-04T17:34:22;101230.66;;;6.57;48.75
4858;BME280;58975;51.978;8.472;2023-04-04T17:39:18;101237.34;;;6.30;50.37
4858;BME280;58975;51.978;8.472;2023-04-04T17:44:15;101227.91;;;6.07;50.78
4858;BME280;58975;51.978;8.472;2023-04-04T17:49:12;101231.53;;;5.86;52.26
4858;BME280;58975;51.978;8.472;2023-04-04T17:54:11;101238.78;;;5.63;54.87
4858;BME280;58975;51.978;8.472;2023-04-04T17:59:07;101237.72;;;5.49;53.59
4858;BME280;58975;51.978;8.472;2023-04-04T18:04:04;101233.69;;;5.40;54.25
4858;BME280;58975;51.978;8.472;2023-04-04T18:09:00;101243.75;;;5.32;55.32
4858;BME280;58975;51.978;8.472;2023-04-04T18:13:57;101252.09;;;5.23;55.72
4858;BME280;58975;51.978;8.472;2023-04-04T18:18:53;101246.28;;;5.15;54.81
4858;BME280;58975;51.978;8.472;2023-04-04T18:23:49;101253.78;;;5.05;55.92
4858;BME280;58975;51.978;8.472;2023-04-04T18:28:46;101252.25;;;5.00;55.95
4858;BME280;58975;51.978;8.472;2023-04-04T18:33:43;101260.38;;;4.95;57.13
4858;BME280;58975;51.978;8.472;2023-04-04T18:38:39;101248.22;;;4.91;56.96
4858;BME280;58975;51.978;8.472;2023-04-04T18:43:36;101256.28;;;4.88;58.82
4858;BME280;58975;51.978;8.472;2023-04-04T18:48:32;101259.19;;;4.82;58.91
4858;BME280;58975;51.978;8.472;2023-04-04T18:53:28;101264.88;;;4.73;61.72
4858;BME280;58975;51.978;8.472;2023-04-04T18:58:25;101266.09;;;4.64;63.67
4858;BME280;58975;51.978;8.472;2023-04-04T19:03:22;101270.44;;;4.45;68.36
4858;BME280;58975;51.978;8.472;2023-04-04T19:08:18;101268.91;;;4.40;69.90
4858;BME280;58975;51.978;8.472;2023-04-04T19:13:15;101267.56;;;4.29;74.53
4858;BME280;58975;51.978;8.472;2023-04-04T19:18:11;101274.25;;;4.16;78.53
4858;BME280;58975;51.978;8.472;2023-04-04T19:23:08;101275.59;;;4.05;82.78
4858;BME280;58975;51.978;8.472;2023-04-04T19:28:05;101270.50;;;4.00;82.67
4858;BME280;58975;51.978;8.472;2023-04-04T19:33:02;101273.41;;;3.94;81.54
4858;BME280;58975;51.978;8.472;2023-04-04T19:38:03;101269.16;;;3.90;83.53
4858;BME280;58975;51.978;8.472;2023-04-04T19:43:01;101275.72;;;4.02;77.78
4858;BME280;58975;51.978;8.472;2023-04-04T19:47:58;101280.63;;;3.89;82.49
4858;BME280;58975;51.978;8.472;2023-04-04T19:52:55;101278.75;;;3.69;86.62
4858;BME280;58975;51.978;8.472;2023-04-04T19:57:51;101275.94;;;3.74;83.32
4858;BME280;58975;51.978;8.472;2023-04-04T20:02:48;101278.44;;;3.55;91.94
4858;BME280;58975;51.978;8.472;2023-04-04T20:07:45;101277.03;;;3.45;90.67
4858;BME280;58975;51.978;8.472;2023-04-04T20:12:41;101288.72;;;3.38;93.61
4858;BME280;58975;51.978;8.472;2023-04-04T20:17:38;101287.28;;;3.29;100.00
4858;BME280;58975;51.978;8.472;2023-04-04T20:22:34;101285.59;;;3.28;100.00
4858;BME280;58975;51.978;8.472;2023-04-04T20:27:30;101283.56;;;3.35;98.48
4858;BME280;58975;51.978;8.472;2023-04-04T20:32:28;101281.09;;;3.30;99.04
4858;BME280;58975;51.978;8.472;2023-04-04T20:37:25;101272.31;;;3.31;95.02
4858;BME280;58975;51.978;8.472;2023-04-04T20:52:38;101278.31;;;3.10;100.00
4858;BME280;58975;51.978;8.472;2023-04-04T20:57:35;101273.47;;;3.00;100.00
4858;BME280;58975;51.978;8.472;2023-04-04T21:02:31;101274.31;;;3.00;100.00
4858;BME280;58975;51.978;8.472;2023-04-04T21:07:38;101278.56;;;3.04;100.00
4858;BME280;58975;51.978;8.472;2023-04-04T21:12:35;101272.47;;;3.02;100.00
4858;BME280;58975;51.978;8.472;2023-04-04T21:17:32;101257.50;;;3.04;100.00
4858;BME280;58975;51.978;8.472;2023-04-04T21:22:30;101261.31;;;2.96;100.00
4858;BME280;58975;51.978;8.472;2023-04-04T21:27:31;101253.44;;;2.96;100.00
4858;BME280;58975;51.978;8.472;2023-04-04T21:32:29;101259.50;;;2.98;100.00
4858;BME280;58975;51.978;8.472;2023-04-04T21:37:25;101258.56;;;2.99;100.00
4858;BME280;58975;51.978;8.472;2023-04-04T21:42:21;101254.06;;;3.02;100.00
4858;BME280;58975;51.978;8.472;2023-04-04T21:47:18;101252.81;;;2.89;100.00
4858;BME280;58975;51.978;8.472;2023-04-04T21:52:14;101243.13;;;2.65;100.00
4858;BME280;58975;51.978;8.472;2023-04-04T21:57:10;101247.84;;;2.55;100.00
4858;BME280;58975;51.978;8.472;2023-04-04T22:02:07;101247.41;;;2.43;97.53
4858;BME280;58975;51.978;8.472;2023-04-04T22:07:04;101243.47;;;2.03;100.00
4858;BME280;58975;51.978;8.472;2023-04-04T22:12:00;101240.78;;;1.77;100.00
4858;BME280;58975;51.978;8.472;2023-04-04T22:16:57;101234.19;;;1.64;100.00
4858;BME280;58975;51.978;8.472;2023-04-04T22:21:54;101235.66;;;1.45;100.00
4858;BME280;58975;51.978;8.472;2023-04-04T22:26:53;101229.41;;;1.49;100.00
4858;BME280;58975;51.978;8.472;2023-04-04T22:31:50;101217.81;;;1.26;100.00
4858;BME280;58975;51.978;8.472;2023-04-04T22:36:46;101233.38;;;1.03;100.00
4858;BME280;58975;51.978;8.472;2023-04-04T22:41:42;101219.66;;;0.93;100.00
4858;BME280;58975;51.978;8.472;2023-04-04T22:46:39;101226.16;;;0.79;100.00
4858;BME280;58975;51.978;8.472;2023-04-04T22:51:36;101217.25;;;0.86;100.00
4858;BME280;58975;51.978;8.472;2023-04-04T22:56:40;101216.66;;;0.75;100.00
4858;BME280;58975;51.978;8.472;2023-04-04T23:01:37;101201.09;;;0.70;100.00
4858;BME280;58975;51.978;8.472;2023-04-04T23:06:33;101212.81;;;0.56;100.00
4858;BME280;58975;51.978;8.472;2023-04-04T23:11:30;101214.72;;;0.51;100.00
4858;BME280;58975;51.978;8.472;2023-04-04T23:16:27;101215.56;;;0.17;100.00
4858;BME280;58975;51.978;8.472;2023-04-04T23:21:24;101209.09;;;-0.02;100.00
4858;BME280;58975;51.978;8.472;2023-04-04T23:26:20;101209.91;;;0.00;100.00
4858;BME280;58975;51.978;8.472;2023-04-04T23:31:17;101203.03;;;-0.04;100.00
4858;BME280;58975;51.978;8.472;2023-04-04T23:36:15;101211.41;;;-0.27;100.00
4858;BME280;58975;51.978;8.472;2023-04-04T23:41:12;101207.47;;;-0.44;100.00
4858;BME280;58975;51.978;8.472;2023-04-04T23:46:08;101203.28;;;-0.52;100.00
4858;BME280;58975;51.978;8.472;2023-04-04T23:51:06;101198.25;;;-0.61;100.00
4858;BME280;58975;51.978;8.472;2023-04-04T23:56:03;101194.66;;;-0.55;100.00
